sensor_id;sensor_type;location;lat;lon;timestamp;temperature;humidity
15241;DHT22;7723;52.170;9.978;2022-10-12T00:02:05;5.10;99.90
15241;DHT22;7723;52.170;9.978;2022-10-12T00:04:33;5.10;99.90
15241;DHT22;7723;52.170;9.978;2022-10-12T00:07:00;5.10;99.90
15241;DHT22;7723;52.170;9.978;2022-10-12T00:09:28;5.10;99.90
15241;DHT22;7723;52.170;9.978;2022-10-12T00:11:55;5.00;99.90
15241;DHT22;7723;52.170;9.978;2022-10-12T00:14:22;5.00;99.90
15241;DHT22;7723;52.170;9.978;2022-10-12T00:16:49;5.10;99.90
15241;DHT22;7723;52.170;9.978;2022-10-12T00:19:16;5.10;99.90
15241;DHT22;7723;52.170;9.978;2022-10-12T00:21:45;5.00;99.90
15241;DHT22;7723;52.170;9.978;2022-10-12T00:24:12;5.10;99.90
15241;DHT22;7723;52.170;9.978;2022-10-12T00:26:39;5.00;99.90
15241;DHT22;7723;52.170;9.978;2022-10-12T00:29:06;5.00;99.90
15241;DHT22;7723;52.170;9.978;2022-10-12T00:31:33;5.00;99.90
15241;DHT22;7723;52.170;9.978;2022-10-12T00:34:02;4.80;99.90
15241;DHT22;7723;52.170;9.978;2022-10-12T00:36:31;4.80;99.90
15241;DHT22;7723;52.170;9.978;2022-10-12T00:39:00;4.80;99.90
15241;DHT22;7723;52.170;9.978;2022-10-12T00:41:30;4.80;99.90
15241;DHT22;7723;52.170;9.978;2022-10-12T00:43:58;4.90;99.90
15241;DHT22;7723;52.170;9.978;2022-10-12T00:46:29;4.70;99.90
15241;DHT22;7723;52.170;9.978;2022-10-12T00:49:07;4.70;99.90
15241;DHT22;7723;52.170;9.978;2022-10-12T00:51:36;4.60;99.90
15241;DHT22;7723;52.170;9.978;2022-10-12T00:54:10;4.70;99.90
15241;DHT22;7723;52.170;9.978;2022-10-12T00:56:39;4.70;99.90
15241;DHT22;7723;52.170;9.978;2022-10-12T00:59:11;4.70;99.90
15241;DHT22;7723;52.170;9.978;2022-10-12T01:01:40;4.70;99.90
15241;DHT22;7723;52.170;9.978;2022-10-12T01:04:07;4.80;99.90
15241;DHT22;7723;52.170;9.978;2022-10-12T01:06:35;4.80;99.90
15241;DHT22;7723;52.170;9.978;2022-10-12T01:09:03;4.70;99.90
15241;DHT22;7723;52.170;9.978;2022-10-12T01:11:32;4.80;99.90
15241;DHT22;7723;52.170;9.978;2022-10-12T01:13:59;4.70;99.90
15241;DHT22;7723;52.170;9.978;2022-10-12T01:16:30;4.70;99.90
15241;DHT22;7723;52.170;9.978;2022-10-12T01:19:08;4.60;99.90
15241;DHT22;7723;52.170;9.978;2022-10-12T01:21:41;4.60;99.90
15241;DHT22;7723;52.170;9.978;2022-10-12T01:24:33;4.60;99.90
15241;DHT22;7723;52.170;9.978;2022-10-12T01:27:27;4.60;99.90
15241;DHT22;7723;52.170;9.978;2022-10-12T01:30:12;4.60;99.90
15241;DHT22;7723;52.170;9.978;2022-10-12T01:33:01;4.60;99.90
15241;DHT22;7723;52.170;9.978;2022-10-12T01:35:36;4.50;99.90
15241;DHT22;7723;52.170;9.978;2022-10-12T01:38:14;4.60;99.90
15241;DHT22;7723;52.170;9.978;2022-10-12T01:40:49;4.60;99.90
15241;DHT22;7723;52.170;9.978;2022-10-12T01:43:17;4.60;99.90
15241;DHT22;7723;52.170;9.978;2022-10-12T01:45:48;4.50;99.90
15241;DHT22;7723;52.170;9.978;2022-10-12T01:48:15;4.50;99.90
15241;DHT22;7723;52.170;9.978;2022-10-12T01:50:48;4.50;99.90
15241;DHT22;7723;52.170;9.978;2022-10-12T01:53:25;4.50;99.90
15241;DHT22;7723;52.170;9.978;2022-10-12T01:55:58;4.40;99.90
15241;DHT22;7723;52.170;9.978;2022-10-12T01:58:38;4.30;99.90
15241;DHT22;7723;52.170;9.978;2022-10-12T02:01:19;4.30;99.90
15241;DHT22;7723;52.170;9.978;2022-10-12T02:03:54;4.40;99.90
15241;DHT22;7723;52.170;9.978;2022-10-12T02:06:29;4.40;99.90
15241;DHT22;7723;52.170;9.978;2022-10-12T02:09:02;4.40;99.90
15241;DHT22;7723;52.170;9.978;2022-10-12T02:11:33;4.40;99.90
15241;DHT22;7723;52.170;9.978;2022-10-12T02:14:08;4.40;99.90
15241;DHT22;7723;52.170;9.978;2022-10-12T02:16:40;4.30;99.90
15241;DHT22;7723;52.170;9.978;2022-10-12T02:19:11;4.30;99.90
15241;DHT22;7723;52.170;9.978;2022-10-12T02:21:40;4.20;99.90
15241;DHT22;7723;52.170;9.978;2022-10-12T02:24:09;4.20;99.90
15241;DHT22;7723;52.170;9.978;2022-10-12T02:26:38;4.10;99.90
15241;DHT22;7723;52.170;9.978;2022-10-12T02:29:13;4.10;99.90
15241;DHT22;7723;52.170;9.978;2022-10-12T02:31:49;4.10;99.90
15241;DHT22;7723;52.170;9.978;2022-10-12T02:34:20;4.00;99.90
15241;DHT22;7723;52.170;9.978;2022-10-12T02:36:52;4.00;99.90
15241;DHT22;7723;52.170;9.978;2022-10-12T02:39:27;3.90;99.90
15241;DHT22;7723;52.170;9.978;2022-10-12T02:41:58;3.90;99.90
15241;DHT22;7723;52.170;9.978;2022-10-12T02:44:31;3.90;99.90
15241;DHT22;7723;52.170;9.978;2022-10-12T02:47:02;3.90;99.90
15241;DHT22;7723;52.170;9.978;2022-10-12T02:49:31;3.90;99.90
15241;DHT22;7723;52.170;9.978;2022-10-12T02:52:01;4.00;99.90
15241;DHT22;7723;52.170;9.978;2022-10-12T02:54:29;4.00;99.90
15241;DHT22;7723;52.170;9.978;2022-10-12T02:56:56;4.00;99.90
15241;DHT22;7723;52.170;9.978;2022-10-12T02:59:23;4.10;99.90
15241;DHT22;7723;52.170;9.978;2022-10-12T03:01:50;4.00;99.90
15241;DHT22;7723;52.170;9.978;2022-10-12T03:04:19;4.00;99.90
15241;DHT22;7723;52.170;9.978;2022-10-12T03:06:46;3.90;99.90
15241;DHT22;7723;52.170;9.978;2022-10-12T03:09:13;3.90;99.90
15241;DHT22;7723;52.170;9.978;2022-10-12T03:11:40;3.90;99.90
15241;DHT22;7723;52.170;9.978;2022-10-12T03:14:09;4.00;99.90
15241;DHT22;7723;52.170;9.978;2022-10-12T03:16:37;4.10;99.90
15241;DHT22;7723;52.170;9.978;2022-10-12T03:19:04;4.00;99.90
15241;DHT22;7723;52.170;9.978;2022-10-12T03:21:32;3.90;99.90
15241;DHT22;7723;52.170;9.978;2022-10-12T03:23:59;3.90;99.90
15241;DHT22;7723;52.170;9.978;2022-10-12T03:26:27;3.90;99.90
15241;DHT22;7723;52.170;9.978;2022-10-12T03:28:54;4.00;99.90
15241;DHT22;7723;52.170;9.978;2022-10-12T03:31:21;4.10;99.90
15241;DHT22;7723;52.170;9.978;2022-10-12T03:33:48;4.00;99.90
15241;DHT22;7723;52.170;9.978;2022-10-12T03:36:15;4.00;99.90
15241;DHT22;7723;52.170;9.978;2022-10-12T03:38:44;3.90;99.90
15241;DHT22;7723;52.170;9.978;2022-10-12T03:41:12;3.80;99.90
15241;DHT22;7723;52.170;9.978;2022-10-12T03:43:39;3.90;99.90
15241;DHT22;7723;52.170;9.978;2022-10-12T03:46:06;3.90;99.90
15241;DHT22;7723;52.170;9.978;2022-10-12T03:48:33;4.00;99.90
15241;DHT22;7723;52.170;9.978;2022-10-12T03:51:00;3.80;99.90
15241;DHT22;7723;52.170;9.978;2022-10-12T03:53:28;3.80;99.90
15241;DHT22;7723;52.170;9.978;2022-10-12T03:55:57;3.80;99.90
15241;DHT22;7723;52.170;9.978;2022-10-12T03:58:24;3.80;99.90
15241;DHT22;7723;52.170;9.978;2022-10-12T04:00:51;3.70;99.90
15241;DHT22;7723;52.170;9.978;2022-10-12T04:03:19;3.80;99.90
15241;DHT22;7723;52.170;9.978;2022-10-12T04:05:51;3.80;99.90
15241;DHT22;7723;52.170;9.978;2022-10-12T04:08:19;3.80;99.90
15241;DHT22;7723;52.170;9.978;2022-10-12T04:10:46;3.70;99.90
15241;DHT22;7723;52.170;9.978;2022-10-12T04:13:16;3.80;99.90
15241;DHT22;7723;52.170;9.978;2022-10-12T04:15:44;3.70;99.90
15241;DHT22;7723;52.170;9.978;2022-10-12T04:18:11;3.80;99.90
15241;DHT22;7723;52.170;9.978;2022-10-12T04:20:39;3.80;99.90
15241;DHT22;7723;52.170;9.978;2022-10-12T04:23:06;3.70;99.90
15241;DHT22;7723;52.170;9.978;2022-10-12T04:25:33;3.70;99.90
15241;DHT22;7723;52.170;9.978;2022-10-12T04:28:00;3.50;99.90
15241;DHT22;7723;52.170;9.978;2022-10-12T04:30:29;3.70;99.90
15241;DHT22;7723;52.170;9.978;2022-10-12T04:32:57;3.60;99.90
15241;DHT22;7723;52.170;9.978;2022-10-12T04:35:24;3.70;99.90
15241;DHT22;7723;52.170;9.978;2022-10-12T04:37:51;3.60;99.90
15241;DHT22;7723;52.170;9.978;2022-10-12T04:40:18;3.60;99.90
15241;DHT22;7723;52.170;9.978;2022-10-12T04:42:46;3.60;99.90
15241;DHT22;7723;52.170;9.978;2022-10-12T04:45:13;3.60;99.90
15241;DHT22;7723;52.170;9.978;2022-10-12T04:47:42;3.50;99.90
15241;DHT22;7723;52.170;9.978;2022-10-12T04:50:12;3.50;99.90
15241;DHT22;7723;52.170;9.978;2022-10-12T04:52:39;3.60;99.90
15241;DHT22;7723;52.170;9.978;2022-10-12T04:55:07;3.50;99.90
15241;DHT22;7723;52.170;9.978;2022-10-12T04:57:34;3.50;99.90
15241;DHT22;7723;52.170;9.978;2022-10-12T05:00:02;3.40;99.90
15241;DHT22;7723;52.170;9.978;2022-10-12T05:02:29;3.40;99.90
15241;DHT22;7723;52.170;9.978;2022-10-12T05:04:58;3.40;99.90
15241;DHT22;7723;52.170;9.978;2022-10-12T05:07:26;3.50;99.90
15241;DHT22;7723;52.170;9.978;2022-10-12T05:09:53;3.40;99.90
15241;DHT22;7723;52.170;9.978;2022-10-12T05:12:20;3.40;99.90
15241;DHT22;7723;52.170;9.978;2022-10-12T05:14:47;3.40;99.90
15241;DHT22;7723;52.170;9.978;2022-10-12T05:17:14;3.40;99.90
15241;DHT22;7723;52.170;9.978;2022-10-12T05:19:42;3.40;99.90
15241;DHT22;7723;52.170;9.978;2022-10-12T05:22:10;3.40;99.90
15241;DHT22;7723;52.170;9.978;2022-10-12T05:24:37;3.30;99.90
15241;DHT22;7723;52.170;9.978;2022-10-12T05:27:04;3.30;99.90
15241;DHT22;7723;52.170;9.978;2022-10-12T05:29:31;3.20;99.90
15241;DHT22;7723;52.170;9.978;2022-10-12T05:31:59;3.30;99.90
15241;DHT22;7723;52.170;9.978;2022-10-12T05:34:26;3.30;99.90
15241;DHT22;7723;52.170;9.978;2022-10-12T05:36:53;3.30;99.90
15241;DHT22;7723;52.170;9.978;2022-10-12T05:39:21;3.30;99.90
15241;DHT22;7723;52.170;9.978;2022-10-12T05:41:48;3.30;99.90
15241;DHT22;7723;52.170;9.978;2022-10-12T05:44:19;3.30;99.90
15241;DHT22;7723;52.170;9.978;2022-10-12T05:46:46;3.20;99.90
15241;DHT22;7723;52.170;9.978;2022-10-12T05:49:13;3.20;99.90
15241;DHT22;7723;52.170;9.978;2022-10-12T05:51:40;3.40;99.90
15241;DHT22;7723;52.170;9.978;2022-10-12T05:54:08;3.50;99.90
15241;DHT22;7723;52.170;9.978;2022-10-12T05:56:37;3.50;99.90
15241;DHT22;7723;52.170;9.978;2022-10-12T05:59:04;3.60;99.90
15241;DHT22;7723;52.170;9.978;2022-10-12T06:01:31;3.60;99.90
15241;DHT22;7723;52.170;9.978;2022-10-12T06:03:58;3.60;99.90
15241;DHT22;7723;52.170;9.978;2022-10-12T06:06:25;3.70;99.90
15241;DHT22;7723;52.170;9.978;2022-10-12T06:08:53;3.70;99.90
15241;DHT22;7723;52.170;9.978;2022-10-12T06:11:20;3.80;99.90
15241;DHT22;7723;52.170;9.978;2022-10-12T06:13:48;3.70;99.90
15241;DHT22;7723;52.170;9.978;2022-10-12T06:16:16;3.80;99.90
15241;DHT22;7723;52.170;9.978;2022-10-12T06:18:43;3.90;99.90
15241;DHT22;7723;52.170;9.978;2022-10-12T06:21:10;3.90;99.90
15241;DHT22;7723;52.170;9.978;2022-10-12T06:23:38;4.00;99.90
15241;DHT22;7723;52.170;9.978;2022-10-12T06:26:05;4.00;99.90
15241;DHT22;7723;52.170;9.978;2022-10-12T06:28:32;4.20;99.90
15241;DHT22;7723;52.170;9.978;2022-10-12T06:31:01;4.40;99.90
15241;DHT22;7723;52.170;9.978;2022-10-12T06:33:28;4.50;99.90
15241;DHT22;7723;52.170;9.978;2022-10-12T06:35:56;4.60;99.90
15241;DHT22;7723;52.170;9.978;2022-10-12T06:38:23;4.70;99.90
15241;DHT22;7723;52.170;9.978;2022-10-12T06:40:50;4.60;99.90
15241;DHT22;7723;52.170;9.978;2022-10-12T06:43:18;4.60;99.90
15241;DHT22;7723;52.170;9.978;2022-10-12T06:45:47;4.60;99.90
15241;DHT22;7723;52.170;9.978;2022-10-12T06:48:16;4.60;99.90
15241;DHT22;7723;52.170;9.978;2022-10-12T06:50:43;4.60;99.90
15241;DHT22;7723;52.170;9.978;2022-10-12T06:53:12;4.60;99.90
15241;DHT22;7723;52.170;9.978;2022-10-12T06:55:39;4.80;99.90
15241;DHT22;7723;52.170;9.978;2022-10-12T06:58:06;4.90;99.90
15241;DHT22;7723;52.170;9.978;2022-10-12T07:00:33;5.00;99.90
15241;DHT22;7723;52.170;9.978;2022-10-12T07:03:01;5.20;99.90
15241;DHT22;7723;52.170;9.978;2022-10-12T07:05:29;5.30;99.90
15241;DHT22;7723;52.170;9.978;2022-10-12T07:07:56;5.50;99.90
15241;DHT22;7723;52.170;9.978;2022-10-12T07:10:24;5.80;99.90
15241;DHT22;7723;52.170;9.978;2022-10-12T07:12:51;6.40;99.90
15241;DHT22;7723;52.170;9.978;2022-10-12T07:15:18;6.90;99.90
15241;DHT22;7723;52.170;9.978;2022-10-12T07:17:45;7.70;99.90
15241;DHT22;7723;52.170;9.978;2022-10-12T07:20:12;8.50;99.90
15241;DHT22;7723;52.170;9.978;2022-10-12T07:22:41;9.50;99.90
15241;DHT22;7723;52.170;9.978;2022-10-12T07:25:09;10.70;99.90
15241;DHT22;7723;52.170;9.978;2022-10-12T07:27:36;11.20;99.90
15241;DHT22;7723;52.170;9.978;2022-10-12T07:30:04;11.10;99.90
15241;DHT22;7723;52.170;9.978;2022-10-12T07:32:31;11.00;99.90
15241;DHT22;7723;52.170;9.978;2022-10-12T07:34:58;11.10;99.90
15241;DHT22;7723;52.170;9.978;2022-10-12T07:37:26;11.60;99.90
15241;DHT22;7723;52.170;9.978;2022-10-12T07:39:54;11.60;99.90
15241;DHT22;7723;52.170;9.978;2022-10-12T07:42:22;11.60;99.90
15241;DHT22;7723;52.170;9.978;2022-10-12T07:44:49;11.50;98.20
15241;DHT22;7723;52.170;9.978;2022-10-12T07:47:17;11.80;79.10
15241;DHT22;7723;52.170;9.978;2022-10-12T07:49:44;12.00;52.50
15241;DHT22;7723;52.170;9.978;2022-10-12T07:52:11;12.60;29.70
15241;DHT22;7723;52.170;9.978;2022-10-12T07:54:38;13.10;11.90
15241;DHT22;7723;52.170;9.978;2022-10-12T07:57:08;13.40;1.00
15241;DHT22;7723;52.170;9.978;2022-10-12T07:59:36;13.80;1.00
15241;DHT22;7723;52.170;9.978;2022-10-12T08:02:03;13.80;1.00
15241;DHT22;7723;52.170;9.978;2022-10-12T08:04:30;14.30;1.00
15241;DHT22;7723;52.170;9.978;2022-10-12T08:06:57;14.80;1.00
15241;DHT22;7723;52.170;9.978;2022-10-12T08:09:24;14.80;1.00
15241;DHT22;7723;52.170;9.978;2022-10-12T08:11:52;15.30;1.00
15241;DHT22;7723;52.170;9.978;2022-10-12T08:14:22;15.50;1.00
15241;DHT22;7723;52.170;9.978;2022-10-12T08:16:49;15.60;1.00
15241;DHT22;7723;52.170;9.978;2022-10-12T08:19:16;15.80;1.00
15241;DHT22;7723;52.170;9.978;2022-10-12T08:21:43;15.50;1.00
15241;DHT22;7723;52.170;9.978;2022-10-12T08:24:11;15.10;1.00
15241;DHT22;7723;52.170;9.978;2022-10-12T08:26:38;14.70;1.00
15241;DHT22;7723;52.170;9.978;2022-10-12T08:29:06;14.60;1.00
15241;DHT22;7723;52.170;9.978;2022-10-12T08:31:35;15.10;1.00
15241;DHT22;7723;52.170;9.978;2022-10-12T08:34:02;15.30;1.00
15241;DHT22;7723;52.170;9.978;2022-10-12T08:36:29;15.60;1.00
15241;DHT22;7723;52.170;9.978;2022-10-12T08:38:57;15.90;1.00
15241;DHT22;7723;52.170;9.978;2022-10-12T08:41:42;16.00;1.00
15241;DHT22;7723;52.170;9.978;2022-10-12T08:44:30;16.00;1.00
15241;DHT22;7723;52.170;9.978;2022-10-12T08:47:05;16.10;1.00
15241;DHT22;7723;52.170;9.978;2022-10-12T08:49:38;16.20;1.00
15241;DHT22;7723;52.170;9.978;2022-10-12T08:52:14;16.40;1.00
15241;DHT22;7723;52.170;9.978;2022-10-12T08:54:45;16.60;1.00
15241;DHT22;7723;52.170;9.978;2022-10-12T08:57:15;16.50;1.00
15241;DHT22;7723;52.170;9.978;2022-10-12T08:59:43;16.50;1.00
15241;DHT22;7723;52.170;9.978;2022-10-12T09:02:30;16.40;1.00
15241;DHT22;7723;52.170;9.978;2022-10-12T09:05:02;16.10;1.00
15241;DHT22;7723;52.170;9.978;2022-10-12T09:07:34;15.90;1.00
15241;DHT22;7723;52.170;9.978;2022-10-12T09:10:15;16.30;1.00
15241;DHT22;7723;52.170;9.978;2022-10-12T09:12:49;16.60;1.00
15241;DHT22;7723;52.170;9.978;2022-10-12T09:15:25;16.50;1.00
15241;DHT22;7723;52.170;9.978;2022-10-12T09:17:57;16.70;1.00
15241;DHT22;7723;52.170;9.978;2022-10-12T09:20:27;16.80;1.00
15241;DHT22;7723;52.170;9.978;2022-10-12T09:22:59;17.20;1.00
15241;DHT22;7723;52.170;9.978;2022-10-12T09:25:29;16.70;1.00
15241;DHT22;7723;52.170;9.978;2022-10-12T09:28:10;16.80;1.00
15241;DHT22;7723;52.170;9.978;2022-10-12T09:30:41;17.00;1.00
15241;DHT22;7723;52.170;9.978;2022-10-12T09:33:18;17.10;1.00
15241;DHT22;7723;52.170;9.978;2022-10-12T09:35:47;17.30;1.00
15241;DHT22;7723;52.170;9.978;2022-10-12T09:38:16;17.70;1.00
15241;DHT22;7723;52.170;9.978;2022-10-12T09:40:44;17.70;1.00
15241;DHT22;7723;52.170;9.978;2022-10-12T09:43:13;17.90;1.00
15241;DHT22;7723;52.170;9.978;2022-10-12T09:45:41;17.90;1.00
15241;DHT22;7723;52.170;9.978;2022-10-12T09:48:19;17.50;1.00
15241;DHT22;7723;52.170;9.978;2022-10-12T09:50:52;17.30;1.00
15241;DHT22;7723;52.170;9.978;2022-10-12T09:53:25;17.10;1.00
15241;DHT22;7723;52.170;9.978;2022-10-12T09:55:56;17.30;1.00
15241;DHT22;7723;52.170;9.978;2022-10-12T09:58:24;17.50;1.00
15241;DHT22;7723;52.170;9.978;2022-10-12T10:01:15;17.20;1.00
15241;DHT22;7723;52.170;9.978;2022-10-12T10:03:47;17.60;1.00
15241;DHT22;7723;52.170;9.978;2022-10-12T10:06:14;17.80;1.00
15241;DHT22;7723;52.170;9.978;2022-10-12T10:08:48;17.10;1.00
15241;DHT22;7723;52.170;9.978;2022-10-12T10:11:19;16.80;1.00
15241;DHT22;7723;52.170;9.978;2022-10-12T10:13:49;16.00;1.00
15241;DHT22;7723;52.170;9.978;2022-10-12T10:16:18;16.00;1.00
15241;DHT22;7723;52.170;9.978;2022-10-12T10:18:48;15.50;1.00
15241;DHT22;7723;52.170;9.978;2022-10-12T10:21:24;15.40;1.00
15241;DHT22;7723;52.170;9.978;2022-10-12T10:23:55;15.40;1.00
15241;DHT22;7723;52.170;9.978;2022-10-12T10:26:24;15.60;1.00
15241;DHT22;7723;52.170;9.978;2022-10-12T10:28:56;15.50;1.00
15241;DHT22;7723;52.170;9.978;2022-10-12T10:31:25;15.20;1.00
15241;DHT22;7723;52.170;9.978;2022-10-12T10:34:10;15.50;1.00
15241;DHT22;7723;52.170;9.978;2022-10-12T10:36:39;15.60;1.00
15241;DHT22;7723;52.170;9.978;2022-10-12T10:39:16;15.40;1.00
15241;DHT22;7723;52.170;9.978;2022-10-12T10:41:45;15.40;1.00
15241;DHT22;7723;52.170;9.978;2022-10-12T10:44:24;15.10;1.00
15241;DHT22;7723;52.170;9.978;2022-10-12T10:46:52;15.10;1.00
15241;DHT22;7723;52.170;9.978;2022-10-12T10:49:31;15.10;1.00
15241;DHT22;7723;52.170;9.978;2022-10-12T10:52:00;14.90;1.00
15241;DHT22;7723;52.170;9.978;2022-10-12T10:54:30;14.90;1.00
15241;DHT22;7723;52.170;9.978;2022-10-12T10:57:03;15.00;1.00
15241;DHT22;7723;52.170;9.978;2022-10-12T10:59:41;15.20;1.00
15241;DHT22;7723;52.170;9.978;2022-10-12T11:02:22;15.40;1.00
15241;DHT22;7723;52.170;9.978;2022-10-12T11:04:56;15.40;1.00
15241;DHT22;7723;52.170;9.978;2022-10-12T11:07:29;15.40;1.00
15241;DHT22;7723;52.170;9.978;2022-10-12T11:09:59;15.20;1.00
15241;DHT22;7723;52.170;9.978;2022-10-12T11:12:30;15.00;1.00
15241;DHT22;7723;52.170;9.978;2022-10-12T11:15:05;15.20;1.00
15241;DHT22;7723;52.170;9.978;2022-10-12T11:17:38;15.10;1.00
15241;DHT22;7723;52.170;9.978;2022-10-12T11:20:27;15.20;1.00
15241;DHT22;7723;52.170;9.978;2022-10-12T11:23:00;15.30;1.00
15241;DHT22;7723;52.170;9.978;2022-10-12T11:25:32;15.50;1.00
15241;DHT22;7723;52.170;9.978;2022-10-12T11:28:05;15.50;1.00
15241;DHT22;7723;52.170;9.978;2022-10-12T11:30:38;15.40;1.00
15241;DHT22;7723;52.170;9.978;2022-10-12T11:33:11;15.40;1.00
15241;DHT22;7723;52.170;9.978;2022-10-12T11:35:43;15.40;1.00
15241;DHT22;7723;52.170;9.978;2022-10-12T11:38:15;15.60;1.00
15241;DHT22;7723;52.170;9.978;2022-10-12T11:40:47;15.60;1.00
15241;DHT22;7723;52.170;9.978;2022-10-12T11:43:21;15.60;1.00
15241;DHT22;7723;52.170;9.978;2022-10-12T11:45:51;15.70;1.00
15241;DHT22;7723;52.170;9.978;2022-10-12T11:48:22;15.70;1.00
15241;DHT22;7723;52.170;9.978;2022-10-12T11:50:55;15.60;1.00
15241;DHT22;7723;52.170;9.978;2022-10-12T11:53:30;15.70;1.00
15241;DHT22;7723;52.170;9.978;2022-10-12T11:56:06;15.70;1.00
15241;DHT22;7723;52.170;9.978;2022-10-12T11:58:38;15.50;1.00
15241;DHT22;7723;52.170;9.978;2022-10-12T12:01:19;15.30;1.00
15241;DHT22;7723;52.170;9.978;2022-10-12T12:04:14;15.40;1.00
15241;DHT22;7723;52.170;9.978;2022-10-12T12:06:57;15.40;1.00
15241;DHT22;7723;52.170;9.978;2022-10-12T12:09:37;15.60;1.00
15241;DHT22;7723;52.170;9.978;2022-10-12T12:12:18;15.60;1.00
15241;DHT22;7723;52.170;9.978;2022-10-12T12:15:03;15.70;1.00
15241;DHT22;7723;52.170;9.978;2022-10-12T12:17:32;15.70;1.00
15241;DHT22;7723;52.170;9.978;2022-10-12T12:20:02;15.90;1.00
15241;DHT22;7723;52.170;9.978;2022-10-12T12:22:33;15.90;1.00
15241;DHT22;7723;52.170;9.978;2022-10-12T12:25:19;15.90;1.00
15241;DHT22;7723;52.170;9.978;2022-10-12T12:27:51;15.70;1.00
15241;DHT22;7723;52.170;9.978;2022-10-12T12:30:26;15.70;1.00
15241;DHT22;7723;52.170;9.978;2022-10-12T12:32:56;15.60;1.00
15241;DHT22;7723;52.170;9.978;2022-10-12T12:35:27;15.60;1.00
15241;DHT22;7723;52.170;9.978;2022-10-12T12:38:06;15.70;1.00
15241;DHT22;7723;52.170;9.978;2022-10-12T12:40:40;15.80;1.00
15241;DHT22;7723;52.170;9.978;2022-10-12T12:43:20;15.90;1.00
15241;DHT22;7723;52.170;9.978;2022-10-12T12:45:54;16.00;1.00
15241;DHT22;7723;52.170;9.978;2022-10-12T12:48:59;16.00;1.00
15241;DHT22;7723;52.170;9.978;2022-10-12T12:51:36;15.80;1.00
15241;DHT22;7723;52.170;9.978;2022-10-12T12:54:11;15.80;1.00
15241;DHT22;7723;52.170;9.978;2022-10-12T12:56:45;15.80;1.00
15241;DHT22;7723;52.170;9.978;2022-10-12T12:59:41;15.80;1.00
15241;DHT22;7723;52.170;9.978;2022-10-12T13:02:37;16.00;1.00
15241;DHT22;7723;52.170;9.978;2022-10-12T13:05:41;16.00;1.00
15241;DHT22;7723;52.170;9.978;2022-10-12T13:08:24;15.90;1.00
15241;DHT22;7723;52.170;9.978;2022-10-12T13:11:11;15.80;1.00
15241;DHT22;7723;52.170;9.978;2022-10-12T13:13:52;15.90;1.00
15241;DHT22;7723;52.170;9.978;2022-10-12T13:16:38;15.80;1.00
15241;DHT22;7723;52.170;9.978;2022-10-12T13:19:11;15.80;1.00
15241;DHT22;7723;52.170;9.978;2022-10-12T13:21:40;15.80;1.00
15241;DHT22;7723;52.170;9.978;2022-10-12T13:24:14;15.80;1.00
15241;DHT22;7723;52.170;9.978;2022-10-12T13:26:45;15.70;1.00
15241;DHT22;7723;52.170;9.978;2022-10-12T13:29:19;15.70;1.00
15241;DHT22;7723;52.170;9.978;2022-10-12T13:31:49;15.50;1.00
15241;DHT22;7723;52.170;9.978;2022-10-12T13:34:21;15.30;1.00
15241;DHT22;7723;52.170;9.978;2022-10-12T13:36:54;15.20;1.00
15241;DHT22;7723;52.170;9.978;2022-10-12T13:39:22;15.10;1.00
15241;DHT22;7723;52.170;9.978;2022-10-12T13:41:53;15.00;1.00
15241;DHT22;7723;52.170;9.978;2022-10-12T13:44:23;15.00;1.00
15241;DHT22;7723;52.170;9.978;2022-10-12T13:46:53;14.90;1.00
15241;DHT22;7723;52.170;9.978;2022-10-12T13:49:23;14.80;1.00
15241;DHT22;7723;52.170;9.978;2022-10-12T13:51:52;14.80;1.00
15241;DHT22;7723;52.170;9.978;2022-10-12T13:54:21;14.80;1.00
15241;DHT22;7723;52.170;9.978;2022-10-12T13:56:53;14.80;1.00
15241;DHT22;7723;52.170;9.978;2022-10-12T13:59:23;14.80;1.00
15241;DHT22;7723;52.170;9.978;2022-10-12T14:01:54;14.90;1.00
15241;DHT22;7723;52.170;9.978;2022-10-12T14:04:25;14.90;1.00
15241;DHT22;7723;52.170;9.978;2022-10-12T14:06:57;14.90;1.00
15241;DHT22;7723;52.170;9.978;2022-10-12T14:09:26;14.90;1.00
15241;DHT22;7723;52.170;9.978;2022-10-12T14:11:56;15.00;1.00
15241;DHT22;7723;52.170;9.978;2022-10-12T14:14:29;15.10;1.00
15241;DHT22;7723;52.170;9.978;2022-10-12T14:16:57;15.10;1.00
15241;DHT22;7723;52.170;9.978;2022-10-12T14:19:40;15.30;1.00
15241;DHT22;7723;52.170;9.978;2022-10-12T14:22:10;15.30;1.00
15241;DHT22;7723;52.170;9.978;2022-10-12T14:24:38;15.40;1.00
15241;DHT22;7723;52.170;9.978;2022-10-12T14:27:07;15.30;1.00
15241;DHT22;7723;52.170;9.978;2022-10-12T14:29:44;15.20;1.00
15241;DHT22;7723;52.170;9.978;2022-10-12T14:32:37;15.10;1.00
15241;DHT22;7723;52.170;9.978;2022-10-12T14:35:13;15.00;1.00
15241;DHT22;7723;52.170;9.978;2022-10-12T14:37:45;15.00;1.00
15241;DHT22;7723;52.170;9.978;2022-10-12T14:40:26;14.90;1.00
15241;DHT22;7723;52.170;9.978;2022-10-12T14:42:57;14.90;1.00
15241;DHT22;7723;52.170;9.978;2022-10-12T14:45:25;14.80;1.00
15241;DHT22;7723;52.170;9.978;2022-10-12T14:47:52;14.70;1.00
15241;DHT22;7723;52.170;9.978;2022-10-12T14:50:21;14.70;1.00
15241;DHT22;7723;52.170;9.978;2022-10-12T14:52:50;14.60;1.00
15241;DHT22;7723;52.170;9.978;2022-10-12T14:55:19;14.60;1.00
15241;DHT22;7723;52.170;9.978;2022-10-12T14:57:47;14.50;1.00
15241;DHT22;7723;52.170;9.978;2022-10-12T15:00:18;14.50;1.00
15241;DHT22;7723;52.170;9.978;2022-10-12T15:02:46;14.60;1.00
15241;DHT22;7723;52.170;9.978;2022-10-12T15:05:17;14.60;1.00
15241;DHT22;7723;52.170;9.978;2022-10-12T15:07:46;14.60;1.00
15241;DHT22;7723;52.170;9.978;2022-10-12T15:10:14;14.60;1.00
15241;DHT22;7723;52.170;9.978;2022-10-12T15:12:42;14.60;1.00
15241;DHT22;7723;52.170;9.978;2022-10-12T15:15:23;14.50;1.00
15241;DHT22;7723;52.170;9.978;2022-10-12T15:17:51;14.50;1.00
15241;DHT22;7723;52.170;9.978;2022-10-12T15:20:18;14.40;1.00
15241;DHT22;7723;52.170;9.978;2022-10-12T15:22:46;14.40;1.00
15241;DHT22;7723;52.170;9.978;2022-10-12T15:25:17;14.40;1.00
15241;DHT22;7723;52.170;9.978;2022-10-12T15:27:46;14.50;1.00
15241;DHT22;7723;52.170;9.978;2022-10-12T15:30:14;14.50;1.00
15241;DHT22;7723;52.170;9.978;2022-10-12T15:32:43;14.50;1.00
15241;DHT22;7723;52.170;9.978;2022-10-12T15:35:19;14.50;1.00
15241;DHT22;7723;52.170;9.978;2022-10-12T15:37:47;14.50;1.00
15241;DHT22;7723;52.170;9.978;2022-10-12T15:40:15;14.40;1.00
15241;DHT22;7723;52.170;9.978;2022-10-12T15:42:43;14.40;1.00
15241;DHT22;7723;52.170;9.978;2022-10-12T15:45:20;14.30;1.00
15241;DHT22;7723;52.170;9.978;2022-10-12T15:47:50;14.20;1.00
15241;DHT22;7723;52.170;9.978;2022-10-12T15:50:19;14.20;1.00
15241;DHT22;7723;52.170;9.978;2022-10-12T15:52:47;14.10;1.00
15241;DHT22;7723;52.170;9.978;2022-10-12T15:55:15;14.00;1.00
15241;DHT22;7723;52.170;9.978;2022-10-12T15:57:43;13.90;1.00
15241;DHT22;7723;52.170;9.978;2022-10-12T16:00:12;13.90;1.00
15241;DHT22;7723;52.170;9.978;2022-10-12T16:02:40;13.70;1.00
15241;DHT22;7723;52.170;9.978;2022-10-12T16:05:17;13.60;1.00
15241;DHT22;7723;52.170;9.978;2022-10-12T16:07:45;13.50;1.00
15241;DHT22;7723;52.170;9.978;2022-10-12T16:10:12;13.30;1.00
15241;DHT22;7723;52.170;9.978;2022-10-12T16:12:41;13.20;1.00
15241;DHT22;7723;52.170;9.978;2022-10-12T16:15:10;13.00;1.00
15241;DHT22;7723;52.170;9.978;2022-10-12T16:17:38;13.00;1.00
15241;DHT22;7723;52.170;9.978;2022-10-12T16:20:06;12.90;1.00
15241;DHT22;7723;52.170;9.978;2022-10-12T16:22:36;12.70;1.00
15241;DHT22;7723;52.170;9.978;2022-10-12T16:25:04;12.60;1.00
15241;DHT22;7723;52.170;9.978;2022-10-12T16:27:32;12.40;1.00